Lander, WY

10:50 AM MDT on July 06, 2015 (GMT -0600)
APRSWXNET | | Change Station
CLOSE
Current Station
Personal Weather Station
Location: Lander, WY
Elevation: 5807 ft
Nearby Weather Stations

Elev 5807 ft 42.78 °N, 108.77 °W | Updated 33 minutes ago

Overcast
Overcast
55 °F
Feels Like 55 °F
N
0
Wind Variable Wind from NNE
Gusts 0.0 mph

Today
High -- | Low -- °F
--% Chance of Precip.
Yesterday
High -- | Low -- °F
Precip. -- in
5:43 AM 8:55 PM
Waning Gibbous, 74% visible
Pressure 30.30 in
Visibility 1.8 miles
Clouds Scattered Clouds 900 ft
Mostly Cloudy 1400 ft
Overcast 1900 ft
Dew Point 52 °F
Humidity 91%
Rainfall in
Snow Depth Not available.
UV 3 out of 12
Pollen 1.00 out of 12
Air Quality Not available.
Flu Activity Not available.
SPECI KLND 061643Z AUTO 05006KT 1 3/4SM BR SCT009 BKN014 OVC019 13/12 A3030 RMK AO2 RAB20E37 P0000 T01330122

More Conditions Fewer Conditions

Pressure 30.30 in
Visibility 1.8 miles
Clouds Scattered Clouds 900 ft
Mostly Cloudy 1400 ft
Overcast 1900 ft
Dew Point 52 °F
Humidity 91%
Rainfall in
Snow Depth Not available.
UV 3 out of 12
Pollen 1.00 out of 12
Air Quality Not available.
Flu Activity Not available.
SPECI KLND 061643Z AUTO 05006KT 1 3/4SM BR SCT009 BKN014 OVC019 13/12 A3030 RMK AO2 RAB20E37 P0000 T01330122

More Conditions Fewer Conditions

10-Day Weather Forecast

×

Almanac

Astronomy

Jul. 06, 2015 Rise Set
Actual Time
Civil Twilight
Nautical Twilight
Astronomical Twilight
Moon
Length of Visible Light
Length of Day
Tomorrow will be .
, % of the Moon is Illuminated

Today's Extremes

State Highs State Lows

Community

WunderPhotos

Upload Photos

1,835,599 photos uploaded!

WunderBlogs® & News

Nearby

Air Quality

  Air Quality AQ Index Pollutant
Not available.

Snow Depth

Station Depth Elevation

Earthquake Activity

City Distance Mag. Time & Date
Minimum magnitude displayed is 2.5.

Coastal Water Temperatures

Place Temperature

Stations

Nearby Weather Stations

Station Location Temp. Windchill Dew Point Humidity Wind Precip. Elev Updated Type